Time;durP1;ratioP1;P1;durP2;ratioP2;P2;SDS_P1;SDS_P2;PMS_P1;PMS_P2;Temp;Humidity;BMP_temperature;BMP_pressure;BME280_temperature;BME280_humidity;BME280_pressure;Samples;Min_cycle;Max_cycle;Signal;HPM_P1;HPM_P2
2023/08/08 00:00:52;;;;;;;4.90;1.60;;;;;;;12.82;87.58;100485.75;107316;1255;61180;-70
2023/08/08 00:03:19;;;;;;;4.90;1.80;;;;;;;12.81;87.85;100484.07;107360;1254;59811;-69
2023/08/08 00:05:46;;;;;;;3.90;1.80;;;;;;;12.78;88.30;100481.23;107700;1254;74378;-72
2023/08/08 00:08:13;;;;;;;6.20;2.00;;;;;;;12.77;88.46;100476.80;107771;1254;69976;-72
2023/08/08 00:10:39;;;;;;;5.00;1.80;;;;;;;12.76;89.08;100471.76;107543;1253;71922;-73
2023/08/08 00:13:06;;;;;;;4.40;1.60;;;;;;;12.76;89.11;100474.98;108097;1258;60855;-71
2023/08/08 00:15:32;;;;;;;6.30;2.00;;;;;;;12.75;89.63;100478.33;107974;1254;60341;-69
2023/08/08 00:17:59;;;;;;;4.10;1.80;;;;;;;12.74;90.21;100477.55;107277;1254;75505;-70
2023/08/08 00:20:26;;;;;;;4.50;1.90;;;;;;;12.74;90.39;100474.64;107235;1254;70329;-70
2023/08/08 00:22:53;;;;;;;5.40;1.90;;;;;;;12.75;90.52;100477.06;108811;1255;72703;-71
2023/08/08 00:25:19;;;;;;;4.70;1.90;;;;;;;12.73;90.94;100469.27;108504;1254;62168;-70
2023/08/08 00:27:46;;;;;;;7.10;2.10;;;;;;;12.74;90.92;100471.08;107459;1259;60758;-71
2023/08/08 00:30:13;;;;;;;4.00;1.90;;;;;;;12.74;91.41;100469.68;107676;1254;76226;-71
2023/08/08 00:32:40;;;;;;;4.20;1.80;;;;;;;12.74;91.85;100466.70;107632;1254;71733;-71
2023/08/08 00:35:07;;;;;;;8.30;2.00;;;;;;;12.75;91.77;100464.27;107680;1254;71192;-72
2023/08/08 00:37:34;;;;;;;2.70;1.50;;;;;;;12.75;92.27;100463.39;107602;1254;61882;-71
2023/08/08 00:40:01;;;;;;;5.00;2.20;;;;;;;12.77;92.54;100457.95;107282;1257;61261;-72
2023/08/08 00:42:27;;;;;;;4.60;1.80;;;;;;;12.78;92.49;100457.10;107325;1257;73537;-72
2023/08/08 00:44:54;;;;;;;3.80;1.70;;;;;;;12.80;92.70;100452.08;107490;1260;70151;-70
2023/08/08 00:47:21;;;;;;;5.80;2.00;;;;;;;12.82;92.63;100451.68;107442;1253;72246;-70
2023/08/08 00:49:48;;;;;;;4.20;1.60;;;;;;;12.84;92.72;100449.15;108087;1257;60759;-70
2023/08/08 00:52:15;;;;;;;6.10;2.00;;;;;;;12.85;92.95;100448.46;107094;1254;61232;-71
2023/08/08 00:54:42;;;;;;;3.70;1.70;;;;;;;12.86;92.98;100443.48;108232;1256;73259;-71
2023/08/08 00:57:09;;;;;;;4.60;2.10;;;;;;;12.87;92.80;100439.46;107578;1255;70035;-70
2023/08/08 00:59:35;;;;;;;4.00;1.80;;;;;;;12.88;92.92;100444.67;107704;1260;71527;-71
2023/08/08 01:02:02;;;;;;;3.50;1.60;;;;;;;12.89;93.04;100434.48;107585;1255;62069;-70
2023/08/08 01:04:29;;;;;;;4.50;1.80;;;;;;;12.90;92.85;100434.27;107262;1254;60440;-71
2023/08/08 01:07:33;;;;;;;4.70;2.40;;;;;;;12.90;93.20;100438.58;107321;1259;74715;-71
2023/08/08 01:10:12;;;;;;;3.90;1.80;;;;;;;12.91;93.09;100438.34;107282;1258;71372;-72
2023/08/08 01:12:42;;;;;;;4.40;1.80;;;;;;;12.92;93.05;100434.98;107310;1254;71531;-70
2023/08/08 01:15:10;;;;;;;4.50;1.80;;;;;;;12.91;93.01;100431.75;107941;1257;61270;-70
2023/08/08 01:17:37;;;;;;;3.90;1.60;;;;;;;12.89;93.08;100435.83;107199;1256;61799;-71
2023/08/08 01:20:06;;;;;;;4.70;1.70;;;;;;;12.90;93.23;100432.43;107661;1253;73618;-71
2023/08/08 01:22:37;;;;;;;4.20;1.80;;;;;;;12.90;93.35;100434.16;107889;1254;71245;-71
2023/08/08 01:25:04;;;;;;;4.00;2.20;;;;;;;12.91;93.20;100430.27;107097;1256;71957;-71
2023/08/08 01:27:31;;;;;;;3.40;1.70;;;;;;;12.91;93.43;100426.38;107780;1258;61981;-70
2023/08/08 01:29:58;;;;;;;5.10;2.10;;;;;;;12.90;93.37;100423.11;107418;1254;61282;-72
2023/08/08 01:32:25;;;;;;;4.10;1.80;;;;;;;12.91;93.28;100412.66;107771;1259;75203;-71
2023/08/08 01:34:52;;;;;;;3.40;1.70;;;;;;;12.92;93.40;100412.42;107522;1254;70266;-70
2023/08/08 01:37:32;;;;;;;4.20;1.80;;;;;;;12.93;93.42;100407.80;108001;1253;72141;-69
2023/08/08 01:40:01;;;;;;;3.80;1.70;;;;;;;12.94;93.48;100405.43;107313;1254;61264;-70
2023/08/08 01:42:30;;;;;;;4.80;2.00;;;;;;;12.96;93.53;100410.10;108091;1255;60466;-72
2023/08/08 01:44:57;;;;;;;3.90;1.80;;;;;;;12.97;93.54;100403.73;107769;1256;74781;-71
2023/08/08 01:47:24;;;;;;;3.90;1.80;;;;;;;12.98;93.53;100405.02;107471;1253;69933;-69
2023/08/08 01:49:51;;;;;;;4.80;2.10;;;;;;;12.97;93.54;100401.95;107597;1254;72566;-70
2023/08/08 01:52:18;;;;;;;4.90;2.00;;;;;;;12.94;93.74;100402.15;107347;1254;61180;-71
2023/08/08 01:54:45;;;;;;;2.80;1.80;;;;;;;12.93;93.84;100407.07;107447;1256;61257;-70
2023/08/08 01:57:12;;;;;;;4.00;1.80;;;;;;;12.93;93.99;100402.89;107526;1257;75837;-71
2023/08/08 01:59:38;;;;;;;4.90;2.00;;;;;;;12.94;94.19;100399.40;107753;1254;71549;-71
2023/08/08 02:02:06;;;;;;;5.20;1.90;;;;;;;12.96;94.18;100395.41;107187;1256;72750;-71
2023/08/08 02:04:33;;;;;;;3.30;2.00;;;;;;;12.97;94.28;100396.42;107977;1254;61005;-70
2023/08/08 02:07:00;;;;;;;3.60;1.80;;;;;;;12.99;94.32;100396.56;107248;1255;61349;-70
2023/08/08 02:09:27;;;;;;;5.00;1.90;;;;;;;13.04;94.25;100397.02;107947;1254;72416;-70
2023/08/08 02:11:54;;;;;;;4.00;2.10;;;;;;;13.08;94.31;100390.29;107344;1257;69992;-69
2023/08/08 02:14:21;;;;;;;4.30;1.80;;;;;;;13.11;94.16;100378.54;107341;1258;72765;-72
2023/08/08 02:16:48;;;;;;;5.60;2.40;;;;;;;13.14;94.28;100376.38;108019;1255;62037;-72
2023/08/08 02:19:15;;;;;;;4.50;1.90;;;;;;;13.17;94.08;100372.33;107368;1254;61266;-71
2023/08/08 02:21:41;;;;;;;4.50;1.90;;;;;;;13.21;94.15;100372.26;107715;1254;73809;-70
2023/08/08 02:24:08;;;;;;;5.40;2.10;;;;;;;13.24;94.17;100371.86;107384;1254;70003;-71
2023/08/08 02:26:35;;;;;;;4.60;1.90;;;;;;;13.26;94.07;100370.61;107473;1254;73963;-70
2023/08/08 02:29:02;;;;;;;4.50;1.90;;;;;;;13.27;94.16;100366.88;107403;1254;61988;-70
2023/08/08 02:31:28;;;;;;;3.30;2.10;;;;;;;13.28;94.29;100373.02;107135;1255;62794;-71
2023/08/08 02:33:55;;;;;;;4.90;2.20;;;;;;;13.28;94.30;100372.27;108254;1254;61125;-71
2023/08/08 02:36:22;;;;;;;3.60;1.80;;;;;;;13.29;94.27;100365.63;107298;1254;70081;-72
2023/08/08 02:38:49;;;;;;;3.80;2.10;;;;;;;13.30;94.38;100366.74;107829;1254;72688;-70
2023/08/08 02:41:16;;;;;;;4.10;2.20;;;;;;;13.29;94.52;100366.23;107211;1256;61267;-72
2023/08/08 02:43:43;;;;;;;3.40;2.20;;;;;;;13.31;94.76;100369.69;107248;1254;60183;-71
2023/08/08 02:46:10;;;;;;;3.50;2.20;;;;;;;13.36;94.84;100371.92;107282;1257;72999;-71
2023/08/08 02:48:37;;;;;;;4.60;2.00;;;;;;;13.40;94.86;100371.91;108127;1259;71047;-72
2023/08/08 02:51:04;;;;;;;4.10;2.40;;;;;;;13.44;94.90;100371.41;107840;1256;72403;-72
2023/08/08 02:53:30;;;;;;;5.90;2.40;;;;;;;13.49;95.02;100370.23;107111;1259;62079;-71
2023/08/08 02:55:57;;;;;;;6.70;2.60;;;;;;;13.53;94.88;100368.64;107937;1254;59635;-71
2023/08/08 02:58:24;;;;;;;4.60;2.30;;;;;;;13.57;95.03;100369.02;107268;1254;74675;-71
2023/08/08 03:00:52;;;;;;;5.50;2.30;;;;;;;13.60;95.15;100372.02;107466;1258;70583;-71
2023/08/08 03:03:19;;;;;;;4.80;2.20;;;;;;;13.65;95.03;100373.47;107115;1254;71300;-71
2023/08/08 03:05:46;;;;;;;5.00;2.40;;;;;;;13.68;94.81;100366.45;107669;1254;61728;-72
2023/08/08 03:08:12;;;;;;;6.30;2.70;;;;;;;13.73;94.69;100359.08;107473;1254;61164;-72
2023/08/08 03:10:40;;;;;;;5.80;2.50;;;;;;;13.77;94.54;100362.48;107787;1255;73773;-71
2023/08/08 03:13:08;;;;;;;4.50;2.40;;;;;;;13.80;94.44;100361.45;107326;1257;71218;-71
2023/08/08 03:15:35;;;;;;;4.70;2.20;;;;;;;13.82;94.45;100362.50;107616;1254;72642;-70
2023/08/08 03:18:03;;;;;;;5.00;2.50;;;;;;;13.81;94.30;100360.85;107590;1254;60765;-71
2023/08/08 03:20:30;;;;;;;5.70;2.60;;;;;;;13.82;94.24;100364.50;107343;1254;61257;-72
2023/08/08 03:22:57;;;;;;;5.50;2.70;;;;;;;13.82;94.00;100358.06;107818;1254;73496;-70
2023/08/08 03:25:24;;;;;;;6.70;2.60;;;;;;;13.83;94.15;100357.61;107520;1257;70593;-70
2023/08/08 03:27:51;;;;;;;3.90;2.30;;;;;;;13.83;94.06;100352.93;107482;1255;72704;-69
2023/08/08 03:30:18;;;;;;;5.40;2.90;;;;;;;13.86;93.80;100349.52;107634;1254;63467;-71
2023/08/08 03:32:45;;;;;;;5.00;2.40;;;;;;;13.89;93.80;100354.33;107549;1255;61707;-71
2023/08/08 03:35:11;;;;;;;5.00;2.80;;;;;;;13.91;93.64;100353.01;106933;1257;73018;-71
2023/08/08 03:37:38;;;;;;;4.60;2.50;;;;;;;13.93;93.56;100350.89;107189;1257;70313;-72
2023/08/08 03:40:07;;;;;;;8.30;3.00;;;;;;;13.96;93.43;100352.36;107249;1257;72680;-72
2023/08/08 03:42:34;;;;;;;6.60;2.40;;;;;;;13.99;93.22;100354.85;108137;1254;61254;-72
2023/08/08 03:45:02;;;;;;;4.80;2.40;;;;;;;14.01;93.11;100353.22;107381;1254;61169;-72
2023/08/08 03:47:29;;;;;;;4.90;2.60;;;;;;;14.02;93.09;100354.91;107473;1257;74512;-72
2023/08/08 03:49:57;;;;;;;4.20;2.20;;;;;;;14.02;92.99;100349.36;107889;1254;70590;-71
2023/08/08 03:52:24;;;;;;;5.20;2.30;;;;;;;14.01;92.90;100346.03;107428;1254;70327;-70
2023/08/08 03:54:52;;;;;;;4.90;2.80;;;;;;;14.02;92.72;100345.63;106985;1259;61790;-72
2023/08/08 03:57:19;;;;;;;5.10;2.70;;;;;;;14.04;92.82;100341.11;107671;1255;60426;-71
2023/08/08 03:59:45;;;;;;;3.90;2.40;;;;;;;14.04;92.84;100340.42;107729;1254;73847;-71
2023/08/08 04:02:12;;;;;;;4.70;2.60;;;;;;;14.02;92.96;100337.71;107914;1255;71257;-71
2023/08/08 04:04:39;;;;;;;6.20;2.50;;;;;;;14.03;93.04;100336.64;107607;1258;72865;-71
2023/08/08 04:07:06;;;;;;;5.90;3.00;;;;;;;14.04;92.98;100329.91;107593;1254;61223;-70
2023/08/08 04:09:32;;;;;;;4.60;2.30;;;;;;;14.04;93.02;100326.99;107079;1253;59296;-70
2023/08/08 04:11:59;;;;;;;5.00;2.20;;;;;;;14.05;93.15;100329.67;107327;1255;73884;-70
2023/08/08 04:14:27;;;;;;;5.70;2.30;;;;;;;14.05;93.07;100328.64;107318;1257;70870;-71
2023/08/08 04:16:53;;;;;;;6.40;2.50;;;;;;;14.07;93.03;100334.67;107911;1257;73609;-69
2023/08/08 04:19:21;;;;;;;6.10;2.40;;;;;;;14.08;93.05;100338.41;107680;1253;62107;-71
2023/08/08 04:21:47;;;;;;;4.50;2.40;;;;;;;14.11;92.99;100337.54;107313;1255;61576;-70
2023/08/08 04:24:14;;;;;;;5.00;2.10;;;;;;;14.12;92.87;100331.42;107592;1254;73505;-70
2023/08/08 04:26:40;;;;;;;3.80;2.10;;;;;;;14.15;92.70;100335.81;108002;1257;73448;-69
2023/08/08 04:29:07;;;;;;;5.80;2.00;;;;;;;14.18;92.51;100334.16;107145;1254;61288;-71
2023/08/08 04:31:34;;;;;;;4.20;2.20;;;;;;;14.20;92.48;100338.50;107054;1260;61353;-70
2023/08/08 04:34:01;;;;;;;6.00;2.40;;;;;;;14.22;92.43;100334.00;107488;1257;61150;-69
2023/08/08 04:36:28;;;;;;;4.60;2.30;;;;;;;14.26;92.30;100330.34;107892;1258;73472;-70
2023/08/08 04:38:55;;;;;;;5.30;2.50;;;;;;;14.29;92.15;100329.23;107972;1254;70801;-70
2023/08/08 04:41:22;;;;;;;6.10;2.60;;;;;;;14.30;91.77;100335.34;107288;1254;71823;-70
2023/08/08 04:43:49;;;;;;;4.90;2.30;;;;;;;14.32;91.86;100331.48;107964;1257;61259;-70
2023/08/08 04:46:16;;;;;;;5.60;2.30;;;;;;;14.35;91.93;100328.27;107208;1260;61141;-71
2023/08/08 04:48:42;;;;;;;5.30;2.10;;;;;;;14.36;91.87;100327.33;107485;1256;73417;-70
2023/08/08 04:51:09;;;;;;;5.90;2.50;;;;;;;14.35;91.83;100327.36;107246;1257;229983;-70
2023/08/08 04:53:36;;;;;;;5.90;2.20;;;;;;;14.39;91.79;100323.01;107360;1257;71160;-70
2023/08/08 04:56:03;;;;;;;5.00;2.30;;;;;;;14.42;91.75;100322.46;107963;1254;60797;-71
2023/08/08 04:58:30;;;;;;;5.60;2.50;;;;;;;14.45;91.78;100315.05;107945;1254;60287;-71
2023/08/08 05:00:57;;;;;;;5.50;2.20;;;;;;;14.48;91.68;100315.05;108267;1259;74638;-71
2023/08/08 05:03:23;;;;;;;4.70;2.50;;;;;;;14.49;91.78;100314.92;107303;1260;71125;-71
2023/08/08 05:05:50;;;;;;;4.30;2.20;;;;;;;14.49;91.81;100314.02;107322;1254;71374;-71
2023/08/08 05:08:17;;;;;;;6.40;2.70;;;;;;;14.52;91.75;100306.38;107535;1254;61432;-70
2023/08/08 05:10:44;;;;;;;7.30;2.60;;;;;;;14.55;91.71;100302.73;107420;1257;61248;-71
2023/08/08 05:13:11;;;;;;;6.40;2.30;;;;;;;14.58;91.50;100300.31;107834;1254;76089;-70
2023/08/08 05:15:37;;;;;;;4.50;2.50;;;;;;;14.63;91.31;100292.04;107916;1255;71350;-72
2023/08/08 05:18:04;;;;;;;5.80;2.40;;;;;;;14.65;91.14;100298.65;107580;1257;72551;-73
2023/08/08 05:20:31;;;;;;;5.40;2.60;;;;;;;14.68;91.12;100295.80;107617;1258;61254;-73
2023/08/08 05:22:58;;;;;;;7.60;2.80;;;;;;;14.74;90.86;100290.88;107336;1254;61314;-72
2023/08/08 05:25:25;;;;;;;6.50;2.50;;;;;;;14.78;90.65;100290.55;106952;1257;75922;-71
2023/08/08 05:27:53;;;;;;;5.30;2.50;;;;;;;14.80;90.48;100292.59;107358;1257;61247;-72
2023/08/08 05:30:20;;;;;;;5.50;2.60;;;;;;;14.82;90.31;100287.31;107950;1254;71024;-73
2023/08/08 05:32:46;;;;;;;6.70;2.80;;;;;;;14.85;90.28;100286.67;107680;1254;60461;-73
2023/08/08 05:35:13;;;;;;;6.40;3.10;;;;;;;14.88;90.08;100284.83;107440;1256;61142;-73
2023/08/08 05:37:40;;;;;;;7.30;3.00;;;;;;;14.92;89.99;100286.61;107742;1257;74918;-74
2023/08/08 05:40:07;;;;;;;4.00;2.70;;;;;;;14.97;89.99;100285.02;107227;1260;70023;-74
2023/08/08 05:42:34;;;;;;;4.60;2.20;;;;;;;14.96;89.82;100285.39;107576;1257;71556;-72
2023/08/08 05:45:01;;;;;;;6.00;2.90;;;;;;;14.96;89.47;100288.73;107595;1254;62875;-72
2023/08/08 05:47:27;;;;;;;6.10;2.50;;;;;;;15.00;89.37;100285.48;107810;1260;61189;-73
2023/08/08 05:49:54;;;;;;;4.90;2.40;;;;;;;15.03;89.20;100288.71;107369;1258;74788;-73
2023/08/08 05:52:22;;;;;;;5.10;2.30;;;;;;;15.10;89.10;100291.98;108151;1254;72213;-72
2023/08/08 05:54:48;;;;;;;7.00;2.60;;;;;;;15.14;88.96;100299.34;107556;1260;72707;-74
2023/08/08 05:57:15;;;;;;;5.10;2.70;;;;;;;15.23;88.74;100298.48;107536;1255;61158;-73
2023/08/08 05:59:44;;;;;;;6.30;2.50;;;;;;;15.33;88.61;100300.46;107322;1259;61252;-75
2023/08/08 06:02:11;;;;;;;5.50;2.00;;;;;;;15.42;88.28;100305.20;107324;1254;75146;-72
2023/08/08 06:04:38;;;;;;;5.00;2.30;;;;;;;15.46;87.72;100311.59;107773;1257;69791;-73
2023/08/08 06:07:05;;;;;;;4.90;2.40;;;;;;;15.53;87.48;100310.73;107463;1256;72411;-73
2023/08/08 06:09:37;;;;;;;5.70;2.30;;;;;;;15.58;87.28;100308.39;107351;1254;61284;-72
2023/08/08 06:12:04;;;;;;;7.10;2.50;;;;;;;15.62;87.02;100310.05;108114;1254;61205;-72
2023/08/08 06:14:31;;;;;;;6.60;2.20;;;;;;;15.65;86.74;100309.32;108901;1259;74096;-72
2023/08/08 06:16:58;;;;;;;6.00;2.70;;;;;;;15.69;86.83;100309.04;108867;1261;71665;-72
2023/08/08 06:19:25;;;;;;;3.90;2.30;;;;;;;15.71;86.47;100311.38;107896;1260;72750;-74
2023/08/08 06:21:52;;;;;;;4.70;2.30;;;;;;;15.73;86.27;100311.27;108562;1257;61272;-73
2023/08/08 06:24:18;;;;;;;4.80;2.50;;;;;;;15.76;86.17;100314.59;108134;1254;60404;-71
2023/08/08 06:26:45;;;;;;;7.60;2.50;;;;;;;15.76;86.16;100310.88;107819;1258;74746;-74
2023/08/08 06:29:13;;;;;;;6.50;3.00;;;;;;;15.75;86.14;100312.39;106868;1255;71176;-70
2023/08/08 06:31:41;;;;;;;6.00;2.40;;;;;;;15.75;85.91;100314.86;107486;1254;70591;-72
2023/08/08 06:34:08;;;;;;;5.40;2.40;;;;;;;15.78;85.63;100308.88;107050;1259;61271;-71
2023/08/08 06:36:35;;;;;;;4.50;2.40;;;;;;;15.86;85.45;100311.16;107101;1254;61268;-72
2023/08/08 06:39:02;;;;;;;4.70;2.50;;;;;;;15.92;85.25;100306.73;107409;1254;74467;-71
2023/08/08 06:41:29;;;;;;;4.90;2.70;;;;;;;16.02;85.18;100319.45;107006;1255;70746;-71
2023/08/08 06:43:55;;;;;;;4.80;2.50;;;;;;;16.10;84.94;100310.02;107648;1257;72052;-72
2023/08/08 06:46:24;;;;;;;4.90;2.70;;;;;;;16.16;84.60;100305.58;107170;1262;61340;-72
2023/08/08 06:48:53;;;;;;;4.90;2.70;;;;;;;16.15;84.38;100303.06;107447;1254;61183;-73
2023/08/08 06:51:19;;;;;;;6.00;2.80;;;;;;;16.19;84.49;100304.14;107081;1255;74966;-72
2023/08/08 06:53:47;;;;;;;4.80;2.50;;;;;;;16.28;84.76;100297.94;107079;1259;70889;-72
2023/08/08 06:56:13;;;;;;;4.70;2.60;;;;;;;16.41;84.17;100307.66;106379;1262;71937;-72
2023/08/08 06:58:40;;;;;;;6.60;2.50;;;;;;;16.52;83.35;100315.87;107359;1254;61828;-73
2023/08/08 07:01:07;;;;;;;6.20;2.60;;;;;;;16.63;82.47;100311.44;107177;1254;59698;-72
2023/08/08 07:03:33;;;;;;;5.00;2.10;;;;;;;16.80;82.47;100304.73;106948;1259;73494;-70
2023/08/08 07:06:01;;;;;;;4.80;2.20;;;;;;;16.95;81.79;100306.98;107140;1254;71200;-71
2023/08/08 07:08:29;;;;;;;5.50;2.30;;;;;;;17.06;81.06;100304.70;106554;1255;73174;-72
2023/08/08 07:10:58;;;;;;;5.70;2.50;;;;;;;17.16;79.86;100300.73;106580;1260;61284;-73
2023/08/08 07:13:25;;;;;;;3.60;2.00;;;;;;;17.30;78.63;100305.77;106291;1254;61222;-71
2023/08/08 07:15:52;;;;;;;3.60;1.90;;;;;;;17.40;77.15;100298.36;106722;1257;74365;-72
2023/08/08 07:18:19;;;;;;;3.20;1.80;;;;;;;17.51;76.67;100301.20;107157;1267;70034;-72
2023/08/08 07:20:46;;;;;;;3.80;1.50;;;;;;;17.56;76.35;100297.98;106802;1257;71951;-75
2023/08/08 07:23:12;;;;;;;3.60;1.60;;;;;;;17.49;75.53;100299.22;107113;1257;62222;-73
2023/08/08 07:25:39;;;;;;;5.20;2.00;;;;;;;17.48;75.54;100303.60;106813;1254;61246;-72
2023/08/08 07:28:06;;;;;;;3.40;1.50;;;;;;;17.38;74.32;100296.03;106733;1254;74359;-72
2023/08/08 07:30:33;;;;;;;4.70;1.60;;;;;;;17.31;74.15;100310.45;106524;1257;69190;-71
2023/08/08 07:32:59;;;;;;;3.50;1.50;;;;;;;17.25;73.85;100301.30;107051;1254;71758;-72
2023/08/08 07:35:27;;;;;;;4.00;1.50;;;;;;;17.25;74.26;100294.33;107125;1254;61359;-72
2023/08/08 07:37:53;;;;;;;5.50;1.60;;;;;;;17.38;74.80;100293.80;106470;1259;60123;-73
2023/08/08 07:40:21;;;;;;;3.40;1.50;;;;;;;17.48;74.24;100282.94;106765;1254;75985;-73
2023/08/08 07:42:49;;;;;;;3.10;1.30;;;;;;;17.64;73.64;100287.29;107070;1254;71438;-73
2023/08/08 07:45:16;;;;;;;3.90;1.50;;;;;;;17.73;71.60;100298.34;106409;1254;72298;-73
2023/08/08 07:47:43;;;;;;;3.00;1.20;;;;;;;17.75;70.48;100303.91;106566;1254;61401;-72
2023/08/08 07:50:10;;;;;;;5.10;1.60;;;;;;;17.76;70.62;100294.23;106618;1254;61269;-71
2023/08/08 07:52:38;;;;;;;3.40;1.70;;;;;;;17.81;71.48;100287.28;107071;1257;74724;-73
2023/08/08 07:55:05;;;;;;;5.80;1.40;;;;;;;17.79;70.98;100290.64;106867;1254;70023;-73
2023/08/08 07:57:35;;;;;;;4.70;1.50;;;;;;;17.70;69.53;100291.85;106404;1254;72746;-71
2023/08/08 08:00:12;;;;;;;7.30;1.50;;;;;;;17.78;69.77;100286.50;106719;1260;61352;-72
2023/08/08 08:02:43;;;;;;;4.60;1.20;;;;;;;17.97;68.96;100285.67;106937;1254;62032;-71
2023/08/08 08:05:11;;;;;;;2.10;1.10;;;;;;;18.02;66.83;100291.58;106456;1254;73574;-71
2023/08/08 08:07:38;;;;;;;3.60;1.30;;;;;;;18.03;67.13;100285.92;106927;1255;71773;-73
2023/08/08 08:10:08;;;;;;;2.90;1.20;;;;;;;18.09;66.08;100286.80;106954;1254;71743;-70
2023/08/08 08:12:35;;;;;;;3.20;1.10;;;;;;;18.14;66.26;100292.45;107746;1248;60473;-71
2023/08/08 08:15:04;;;;;;;3.90;1.30;;;;;;;18.12;64.67;100286.65;108619;1256;64141;-71
2023/08/08 08:17:31;;;;;;;3.70;1.20;;;;;;;17.97;63.75;100284.98;108799;1256;73636;-73
2023/08/08 08:19:58;;;;;;;3.30;1.10;;;;;;;17.93;64.44;100278.66;108882;1256;72007;-71
2023/08/08 08:22:25;;;;;;;2.90;1.30;;;;;;;17.99;64.89;100275.24;108459;1256;71137;-70
2023/08/08 08:24:51;;;;;;;3.50;1.10;;;;;;;18.14;64.30;100266.35;106101;1256;62014;-71
2023/08/08 08:27:18;;;;;;;2.60;1.00;;;;;;;18.32;64.45;100264.91;106360;1257;61340;-73
2023/08/08 08:29:45;;;;;;;4.10;1.30;;;;;;;18.50;62.75;100272.41;106234;1256;73714;-73
2023/08/08 08:32:11;;;;;;;2.90;1.00;;;;;;;18.66;61.72;100260.77;106380;1256;61861;-72
2023/08/08 08:34:38;;;;;;;3.90;1.00;;;;;;;18.85;61.03;100263.61;106663;1256;61450;-71
2023/08/08 08:37:05;;;;;;;3.20;1.10;;;;;;;18.80;60.04;100257.20;106343;1256;61264;-71
2023/08/08 08:39:31;;;;;;;3.20;1.10;;;;;;;18.87;60.24;100254.30;106392;1256;61266;-71
2023/08/08 08:42:04;;;;;;;2.70;1.00;;;;;;;19.02;60.41;100250.55;106526;1256;73500;-73
2023/08/08 08:44:31;;;;;;;3.60;1.20;;;;;;;19.16;58.92;100253.91;106448;1256;71799;-72
2023/08/08 08:47:03;;;;;;;2.70;1.10;;;;;;;19.24;58.58;100240.00;106429;1256;72010;-70
2023/08/08 08:49:31;;;;;;;5.70;1.30;;;;;;;19.23;58.16;100246.50;106377;1256;61904;-71
2023/08/08 08:52:02;;;;;;;3.40;1.00;;;;;;;19.13;57.51;100240.04;106398;1255;61448;-71
2023/08/08 08:54:29;;;;;;;4.60;1.10;;;;;;;19.12;57.50;100236.04;106756;1256;74667;-70
2023/08/08 08:56:57;;;;;;;3.30;0.90;;;;;;;19.13;57.74;100227.07;106063;1256;69586;-69
2023/08/08 08:59:24;;;;;;;2.90;1.00;;;;;;;19.37;58.72;100230.97;106313;1259;71246;-71
2023/08/08 09:01:51;;;;;;;3.00;0.90;;;;;;;19.52;57.45;100240.58;106328;1257;61344;-71
2023/08/08 09:04:20;;;;;;;2.70;0.90;;;;;;;19.39;55.74;100231.70;106536;1259;62103;-69
2023/08/08 09:06:48;;;;;;;3.10;1.00;;;;;;;19.28;56.74;100235.08;106179;1256;72214;-70
2023/08/08 09:09:15;;;;;;;2.50;0.80;;;;;;;19.18;56.80;100251.52;106220;1258;69873;-71
2023/08/08 09:11:48;;;;;;;2.80;0.90;;;;;;;18.98;55.90;100249.84;106231;1256;73018;-71
2023/08/08 09:14:18;;;;;;;4.60;1.00;;;;;;;18.78;57.67;100236.27;106526;1256;62029;-70
2023/08/08 09:16:46;;;;;;;2.50;0.90;;;;;;;18.68;59.49;100230.43;106000;1260;61229;-73
2023/08/08 09:19:14;;;;;;;3.60;1.10;;;;;;;18.63;62.35;100247.91;106123;1256;73688;-71
2023/08/08 09:21:41;;;;;;;4.30;1.40;;;;;;;18.46;64.39;100251.92;105800;1257;71158;-71
2023/08/08 09:24:08;;;;;;;3.50;1.40;;;;;;;18.27;65.89;100257.17;106277;1256;71145;-70
2023/08/08 09:26:35;;;;;;;3.50;1.40;;;;;;;18.23;67.36;100240.03;106022;1257;61263;-70
2023/08/08 09:29:03;;;;;;;3.40;1.20;;;;;;;18.38;68.96;100238.98;106270;1256;61368;-70
2023/08/08 09:31:32;;;;;;;4.10;1.50;;;;;;;18.60;68.78;100233.61;105826;1258;73430;-73
2023/08/08 09:34:00;;;;;;;3.00;1.40;;;;;;;18.82;68.04;100234.80;106128;1257;70016;-71
2023/08/08 09:36:27;;;;;;;4.30;1.60;;;;;;;19.02;67.71;100242.16;105989;1262;71893;-72
2023/08/08 09:38:54;;;;;;;3.70;1.50;;;;;;;19.05;66.67;100243.98;106616;1259;61666;-69
2023/08/08 09:41:22;;;;;;;4.90;1.80;;;;;;;18.97;65.15;100239.54;106439;1256;61282;-69
2023/08/08 09:43:51;;;;;;;3.40;1.40;;;;;;;18.86;65.32;100243.75;106160;1259;74519;-71
2023/08/08 09:46:22;;;;;;;3.60;1.60;;;;;;;18.68;65.53;100242.05;106655;1256;73005;-71
2023/08/08 09:48:50;;;;;;;4.20;1.40;;;;;;;18.56;66.13;100245.31;106007;1259;72732;-71
2023/08/08 09:51:17;;;;;;;3.60;1.50;;;;;;;18.46;67.08;100242.67;105780;1256;61518;-70
2023/08/08 09:53:46;;;;;;;3.70;1.80;;;;;;;18.39;67.89;100242.59;106332;1256;61140;-70
2023/08/08 09:56:14;;;;;;;3.90;1.50;;;;;;;18.38;67.49;100251.27;106032;1257;73558;-71
2023/08/08 09:58:42;;;;;;;5.10;1.40;;;;;;;18.34;67.23;100244.11;106200;1257;70529;-70
2023/08/08 10:01:10;;;;;;;3.90;1.40;;;;;;;18.34;68.03;100237.73;105924;1260;71288;-71
2023/08/08 10:03:42;;;;;;;5.30;1.80;;;;;;;18.27;68.34;100245.69;106004;1256;63118;-73
2023/08/08 10:06:10;;;;;;;3.50;1.50;;;;;;;18.30;67.96;100246.94;106799;1256;61436;-71
2023/08/08 10:08:37;;;;;;;4.50;1.30;;;;;;;18.35;65.41;100237.45;106219;1256;73533;-71
2023/08/08 10:11:07;;;;;;;5.00;1.50;;;;;;;18.54;64.57;100231.09;106233;1256;71065;-71
2023/08/08 10:13:35;;;;;;;3.80;1.30;;;;;;;18.75;64.99;100214.08;106081;1256;72724;-72
2023/08/08 10:16:08;;;;;;;3.70;1.40;;;;;;;18.92;64.26;100222.95;106137;1256;61998;-71
2023/08/08 10:18:35;;;;;;;3.90;1.40;;;;;;;18.96;63.27;100216.73;105827;1263;61285;-72
2023/08/08 10:21:04;;;;;;;3.20;1.40;;;;;;;18.93;64.37;100220.88;105999;1257;73159;-71
2023/08/08 10:23:36;;;;;;;3.90;1.50;;;;;;;18.92;64.51;100224.84;106821;1256;69968;-73
2023/08/08 10:26:05;;;;;;;3.00;1.60;;;;;;;18.89;64.31;100227.10;106103;1256;71747;-72
2023/08/08 10:28:34;;;;;;;4.90;1.60;;;;;;;18.93;64.00;100234.58;106045;1260;61369;-70
2023/08/08 10:31:02;;;;;;;3.10;1.70;;;;;;;19.04;64.15;100235.20;105998;1257;61279;-68
2023/08/08 10:33:40;;;;;;;3.60;1.60;;;;;;;19.32;63.94;100228.52;107157;1256;74747;-71
2023/08/08 10:36:08;;;;;;;3.20;1.30;;;;;;;19.60;61.78;100235.58;106329;1256;70618;-72
2023/08/08 10:38:50;;;;;;;3.60;1.10;;;;;;;19.83;59.34;100238.84;106219;1256;72136;-72
2023/08/08 10:41:19;;;;;;;3.00;1.10;;;;;;;19.81;57.48;100230.27;106491;1260;61743;-71
2023/08/08 10:43:57;;;;;;;3.80;1.40;;;;;;;19.81;58.49;100228.86;106489;1256;61148;-74
2023/08/08 10:46:28;;;;;;;5.90;1.50;;;;;;;20.02;58.93;100240.66;106034;1256;74486;-72
2023/08/08 10:49:01;;;;;;;4.50;1.40;;;;;;;20.08;57.54;100238.17;106087;1257;71196;-72
2023/08/08 10:51:48;;;;;;;5.00;1.30;;;;;;;20.07;57.88;100242.46;106008;1256;72679;-71
2023/08/08 10:54:21;;;;;;;2.80;1.20;;;;;;;20.19;56.36;100237.67;106351;1256;61270;-71
2023/08/08 10:56:53;;;;;;;3.90;1.30;;;;;;;20.19;55.39;100237.83;106207;1260;59942;-71
2023/08/08 10:59:36;;;;;;;2.30;1.00;;;;;;;20.19;55.97;100228.55;106627;1256;73474;-75
2023/08/08 11:02:03;;;;;;;3.60;1.10;;;;;;;20.05;55.92;100238.17;106187;1260;71064;-72
2023/08/08 11:04:32;;;;;;;2.60;1.10;;;;;;;19.93;55.98;100233.45;106213;1256;72652;-72
2023/08/08 11:06:59;;;;;;;3.20;1.10;;;;;;;19.93;56.21;100239.80;105986;1257;61858;-73
2023/08/08 11:09:26;;;;;;;3.90;1.60;;;;;;;20.02;55.71;100244.77;106213;1256;61269;-74
2023/08/08 11:11:53;;;;;;;3.50;1.30;;;;;;;20.11;55.48;100224.84;106139;1257;73533;-72
2023/08/08 11:14:21;;;;;;;2.90;1.10;;;;;;;20.29;55.58;100236.88;106407;1256;71195;-72
2023/08/08 11:16:49;;;;;;;3.30;1.10;;;;;;;20.47;54.11;100222.33;105981;1257;72985;-75
2023/08/08 11:19:16;;;;;;;3.00;1.10;;;;;;;20.65;53.70;100223.42;105783;1262;61338;-72